createdAt,value
2022-08-05T00:00:22.996Z,87.42
2022-08-05T00:01:27.655Z,87.93
2022-08-05T00:02:23.132Z,87.42
2022-08-05T00:03:22.990Z,87.93
2022-08-05T00:04:23.129Z,87.82
2022-08-05T00:06:02.040Z,88.32
2022-08-05T00:06:32.484Z,88.32
2022-08-05T00:07:59.009Z,88.32
2022-08-05T00:08:34.651Z,88.32
2022-08-05T00:09:22.969Z,88.02
2022-08-05T00:10:22.870Z,87.42
2022-08-05T00:11:30.182Z,87.58
2022-08-05T00:12:22.908Z,87.28
2022-08-05T00:13:38.008Z,87.18
2022-08-05T00:14:27.551Z,87.28
2022-08-05T00:15:55.978Z,87.18
2022-08-05T00:16:35.739Z,87.08
2022-08-05T00:17:22.896Z,86.98
2022-08-05T00:18:22.939Z,87.08
2022-08-05T00:19:24.780Z,86.98
2022-08-05T00:20:22.860Z,87.18
2022-08-05T00:21:22.748Z,87.28
2022-08-05T00:22:22.842Z,87.04
2022-08-05T00:23:44.466Z,87.14
2022-08-05T00:24:24.780Z,87.34
2022-08-05T00:25:22.813Z,87.48
2022-08-05T00:26:22.734Z,87.38
2022-08-05T00:27:22.743Z,87.28
2022-08-05T00:28:29.607Z,86.98
2022-08-05T00:29:25.444Z,87.08
2022-08-05T00:30:29.317Z,87.38
2022-08-05T00:31:53.912Z,87.48
2022-08-05T00:32:22.709Z,87.58
2022-08-05T00:34:55.858Z,87.58
2022-08-05T00:35:11.128Z,87.28
2022-08-05T00:35:22.606Z,86.88
2022-08-05T00:37:11.882Z,86.78
2022-08-05T00:37:22.628Z,86.98
2022-08-05T00:38:33.825Z,87.02
2022-08-05T00:39:22.676Z,87.42
2022-08-05T00:40:26.945Z,87.73
2022-08-05T00:41:22.519Z,88.02
2022-08-05T00:42:31.766Z,88.37
2022-08-05T00:43:22.509Z,88.47
2022-08-05T00:44:23.248Z,88.47
2022-08-05T00:45:28.163Z,88.37
2022-08-05T00:46:42.640Z,88.57
2022-08-05T00:47:22.547Z,88.57
2022-08-05T00:48:27.662Z,88.67
2022-08-05T00:49:22.441Z,88.67
2022-08-05T00:50:22.432Z,88.67
2022-08-05T00:51:50.586Z,88.77
2022-08-05T00:52:28.657Z,88.87
2022-08-05T00:53:44.971Z,88.87
2022-08-05T00:54:22.372Z,88.77
2022-08-05T00:55:22.408Z,88.77
2022-08-05T00:56:22.872Z,88.87
2022-08-05T00:57:22.592Z,88.87
2022-08-05T00:58:22.325Z,88.87
2022-08-05T00:59:22.333Z,88.87
2022-08-05T01:00:22.316Z,88.77
2022-08-05T01:01:24.768Z,88.67
2022-08-05T01:02:22.286Z,88.67
2022-08-05T01:03:23.430Z,88.77
2022-08-05T01:04:30.026Z,88.67
2022-08-05T01:05:22.310Z,88.67
2022-08-05T01:06:22.306Z,88.77
2022-08-05T01:07:22.231Z,88.97
2022-08-05T01:08:41.106Z,88.87
2022-08-05T01:09:22.291Z,88.97
2022-08-05T01:10:22.182Z,88.77
2022-08-05T01:11:33.627Z,88.87
2022-08-05T01:12:22.224Z,88.87
2022-08-05T01:13:27.075Z,88.67
2022-08-05T01:14:28.108Z,88.67
2022-08-05T01:15:36.382Z,88.47
2022-08-05T01:16:26.200Z,88.77
2022-08-05T01:17:22.312Z,88.87
2022-08-05T01:18:22.096Z,88.57
2022-08-05T01:19:30.205Z,88.77
2022-08-05T01:20:22.316Z,88.37
2022-08-05T01:21:23.083Z,88.77
2022-08-05T01:22:24.298Z,88.97
2022-08-05T01:23:23.349Z,89.42
2022-08-05T01:24:22.175Z,89.42
2022-08-05T01:25:22.067Z,89.62
2022-08-05T01:26:22.032Z,89.72
2022-08-05T01:27:22.213Z,90.12
2022-08-05T01:28:22.044Z,89.92
2022-08-05T01:29:23.120Z,89.72
2022-08-05T01:30:34.308Z,89.72
2022-08-05T01:31:21.954Z,89.92
2022-08-05T01:32:22.009Z,89.92
2022-08-05T01:33:21.975Z,90.02
2022-08-05T01:34:21.920Z,89.92
2022-08-05T01:35:51.679Z,90.22
2022-08-05T01:36:28.124Z,90.22
2022-08-05T01:37:25.139Z,90.12
2022-08-05T01:38:27.228Z,90.02
2022-08-05T01:39:36.178Z,90.12
2022-08-05T01:40:21.871Z,90.02
2022-08-05T01:41:22.115Z,90.22
2022-08-05T01:42:21.889Z,90.32
2022-08-05T01:43:22.004Z,90.12
2022-08-05T01:44:21.860Z,89.82
2022-08-05T01:45:21.870Z,89.82
2022-08-05T01:46:43.073Z,89.92
2022-08-05T01:47:22.215Z,89.82
2022-08-05T01:48:21.833Z,89.82
2022-08-05T01:49:23.877Z,90.12
2022-08-05T01:50:28.698Z,90.52
2022-08-05T01:51:21.764Z,90.56
2022-08-05T01:52:21.708Z,90.36
2022-08-05T01:53:54.387Z,90.56
2022-08-05T01:54:23.691Z,90.66
2022-08-05T01:55:21.764Z,90.56
2022-08-05T01:58:09.880Z,90.56
2022-08-05T01:58:40.944Z,90.56
2022-08-05T01:58:50.394Z,90.22
2022-08-05T01:59:28.987Z,90.32
2022-08-05T02:00:30.297Z,90.42
2022-08-05T02:01:29.013Z,90.36
2022-08-05T02:02:29.017Z,90.26
2022-08-05T02:03:33.967Z,90.36
2022-08-05T02:04:28.936Z,90.46
2022-08-05T02:05:28.910Z,90.46
2022-08-05T02:06:37.865Z,90.46
2022-08-05T02:07:30.468Z,90.56
2022-08-05T02:08:31.094Z,90.66
2022-08-05T02:09:28.862Z,90.91
2022-08-05T02:10:28.919Z,91.01
2022-08-05T02:11:33.303Z,91.31
2022-08-05T02:12:28.862Z,91.41
2022-08-05T02:13:28.888Z,91.51
2022-08-05T02:14:28.818Z,91.61
2022-08-05T02:15:33.281Z,91.51
2022-08-05T02:16:28.802Z,91.41
2022-08-05T02:18:28.163Z,91.31
2022-08-05T02:18:38.253Z,91.31
2022-08-05T02:19:28.821Z,91.96
2022-08-05T02:20:28.744Z,92.06
2022-08-05T02:21:28.735Z,92.26
2022-08-05T02:22:28.747Z,92.16
2022-08-05T02:23:28.694Z,92.36
2022-08-05T02:24:28.740Z,92.16
2022-08-05T02:25:33.024Z,92.11
2022-08-05T02:26:28.660Z,91.82
2022-08-05T02:27:29.733Z,91.51
2022-08-05T02:28:31.281Z,91.41
2022-08-05T02:29:59.871Z,91.41
2022-08-05T02:30:28.652Z,91.31
2022-08-05T02:31:28.640Z,91.11
2022-08-05T02:32:29.381Z,90.91
2022-08-05T02:33:36.162Z,90.91
2022-08-05T02:34:28.570Z,90.81
2022-08-05T02:35:33.202Z,90.81
2022-08-05T02:36:31.424Z,90.81
2022-08-05T02:37:28.554Z,90.91
2022-08-05T02:38:34.991Z,90.81
2022-08-05T02:39:28.579Z,90.81
2022-08-05T02:40:28.560Z,90.70
2022-08-05T02:41:36.251Z,90.50
2022-08-05T02:42:31.955Z,90.61
2022-08-05T02:43:28.565Z,90.70
2022-08-05T02:44:28.507Z,90.81
2022-08-05T02:45:28.679Z,91.35
2022-08-05T02:46:28.453Z,91.46
2022-08-05T02:47:58.680Z,91.75
2022-08-05T02:48:29.507Z,92.06
2022-08-05T02:49:36.085Z,92.16
2022-08-05T02:50:28.915Z,92.06
2022-08-05T02:52:03.703Z,92.16
2022-08-05T02:52:29.436Z,92.36
2022-08-05T02:53:28.535Z,92.36
2022-08-05T02:54:35.881Z,92.16
2022-08-05T02:55:53.802Z,92.06
2022-08-05T02:56:28.427Z,91.66
2022-08-05T02:58:20.445Z,91.75
2022-08-05T02:58:28.959Z,91.51
2022-08-05T02:59:28.339Z,91.31
2022-08-05T03:00:28.332Z,91.46
2022-08-05T03:01:28.381Z,91.35
2022-08-05T03:02:28.274Z,91.46
2022-08-05T03:03:28.264Z,91.35
2022-08-05T03:04:28.279Z,91.25
2022-08-05T03:06:57.016Z,91.25
2022-08-05T03:07:04.068Z,91.35
2022-08-05T03:08:00.810Z,91.35
2022-08-05T03:08:30.029Z,91.46
2022-08-05T03:09:37.902Z,91.35
2022-08-05T03:10:28.182Z,91.31
2022-08-05T03:11:55.202Z,91.21
2022-08-05T03:12:28.187Z,91.31
2022-08-05T03:13:28.156Z,91.11
2022-08-05T03:14:28.254Z,91.25
2022-08-05T03:15:28.142Z,91.15
2022-08-05T03:16:28.164Z,91.25
2022-08-05T03:17:28.153Z,91.25
2022-08-05T03:18:30.037Z,91.31
2022-08-05T03:19:33.728Z,91.11
2022-08-05T03:20:28.177Z,91.11
2022-08-05T03:21:28.911Z,91.11
2022-08-05T03:22:32.251Z,91.01
2022-08-05T03:23:28.072Z,91.15
2022-08-05T03:24:29.807Z,91.15
2022-08-05T03:25:32.933Z,91.25
2022-08-05T03:26:31.866Z,91.35
2022-08-05T03:27:29.815Z,91.35
2022-08-05T03:28:28.002Z,91.46
2022-08-05T03:29:46.029Z,91.55
2022-08-05T03:30:30.218Z,91.66
2022-08-05T03:31:56.070Z,91.55
2022-08-05T03:32:31.080Z,91.46
2022-08-05T03:33:49.243Z,91.46
2022-08-05T03:34:27.911Z,91.46
2022-08-05T03:35:27.979Z,91.55
2022-08-05T03:36:30.193Z,91.66
2022-08-05T03:37:28.000Z,91.86
2022-08-05T03:38:33.210Z,91.86
2022-08-05T03:39:28.014Z,91.66
2022-08-05T03:40:32.094Z,91.86
2022-08-05T03:41:33.041Z,91.96
2022-08-05T03:42:29.186Z,91.96
2022-08-05T03:44:09.501Z,92.06
2022-08-05T03:44:28.997Z,91.66
2022-08-05T03:45:27.853Z,91.75
2022-08-05T03:46:29.786Z,91.66
2022-08-05T03:47:30.595Z,91.66
2022-08-05T03:48:29.032Z,91.46
2022-08-05T03:49:51.037Z,91.46
2022-08-05T03:50:27.749Z,91.46
2022-08-05T03:52:36.872Z,91.46
2022-08-05T03:56:09.453Z,91.66
2022-08-05T03:56:27.928Z,91.55
2022-08-05T03:56:37.856Z,91.55
2022-08-05T03:57:35.013Z,91.75
2022-08-05T03:58:28.932Z,91.75
2022-08-05T03:59:29.203Z,91.80
2022-08-05T04:00:26.876Z,91.90
2022-08-05T04:01:26.886Z,91.90
2022-08-05T04:02:38.327Z,92.00
2022-08-05T04:03:29.241Z,91.80
2022-08-05T04:04:27.470Z,91.90
2022-08-05T04:05:27.834Z,92.10
2022-08-05T04:06:26.726Z,92.10
2022-08-05T04:07:26.843Z,92.30
2022-08-05T04:08:30.157Z,92.60
2022-08-05T04:09:26.880Z,92.75
2022-08-05T04:10:27.822Z,92.91
2022-08-05T04:11:47.129Z,92.91
2022-08-05T04:12:26.667Z,92.71
2022-08-05T04:13:49.361Z,92.80
2022-08-05T04:14:30.571Z,92.60
2022-08-05T04:15:26.651Z,92.60
2022-08-05T04:16:32.344Z,92.91
2022-08-05T04:17:26.673Z,93.26
2022-08-05T04:18:26.642Z,93.55
2022-08-05T04:19:26.660Z,93.66
2022-08-05T04:20:26.571Z,93.86
2022-08-05T04:22:10.402Z,93.96
2022-08-05T04:22:26.657Z,94.00
2022-08-05T04:23:57.345Z,94.31
2022-08-05T04:24:27.612Z,94.81
2022-08-05T04:25:56.984Z,95.11
2022-08-05T04:26:26.619Z,95.11
2022-08-05T04:27:42.107Z,95.01
2022-08-05T04:28:30.629Z,94.91
2022-08-05T04:29:27.282Z,94.76
2022-08-05T04:30:26.715Z,94.56
2022-08-05T04:31:27.623Z,94.36
2022-08-05T04:32:31.144Z,94.26
2022-08-05T04:33:54.633Z,94.26
2022-08-05T04:34:32.541Z,94.16
2022-08-05T04:35:26.444Z,93.96
2022-08-05T04:36:49.603Z,93.76
2022-08-05T04:38:01.061Z,93.66
2022-08-05T04:38:39.724Z,93.66
2022-08-05T04:39:27.528Z,93.26
2022-08-05T04:40:26.408Z,93.35
2022-08-05T04:41:34.090Z,93.46
2022-08-05T04:42:26.380Z,93.55
2022-08-05T04:43:26.307Z,93.66
2022-08-05T04:44:29.250Z,93.80
2022-08-05T04:45:47.817Z,93.90
2022-08-05T04:46:28.415Z,93.90
2022-08-05T04:47:26.553Z,93.70
2022-08-05T04:48:28.102Z,93.70
2022-08-05T04:49:38.807Z,94.00
2022-08-05T04:50:34.505Z,94.10
2022-08-05T04:51:26.264Z,94.31
2022-08-05T04:52:27.481Z,94.71
2022-08-05T04:53:26.212Z,94.51
2022-08-05T04:54:26.225Z,94.10
2022-08-05T04:56:15.390Z,94.10
2022-08-05T04:56:40.222Z,94.10
2022-08-05T04:57:28.543Z,93.90
2022-08-05T04:58:26.230Z,93.90
2022-08-05T04:59:38.948Z,93.70
2022-08-05T05:00:26.174Z,93.70
2022-08-05T05:02:05.676Z,93.80
2022-08-05T05:02:37.083Z,93.80
2022-08-05T05:03:26.106Z,93.50
2022-08-05T05:04:26.167Z,93.50
2022-08-05T05:05:28.762Z,93.50
2022-08-05T05:06:36.637Z,93.60
2022-08-05T05:07:29.371Z,93.50
2022-08-05T05:08:26.752Z,93.50
2022-08-05T05:09:26.025Z,93.60
2022-08-05T05:10:26.102Z,93.70
2022-08-05T05:11:41.512Z,93.80
2022-08-05T05:12:27.482Z,93.90
2022-08-05T05:13:26.187Z,94.00
2022-08-05T05:14:31.718Z,93.60
2022-08-05T05:15:57.607Z,93.70
2022-08-05T05:16:30.456Z,93.80
2022-08-05T05:17:56.988Z,93.80
2022-08-05T05:18:31.472Z,93.90
2022-08-05T05:19:27.305Z,93.90
2022-08-05T05:20:28.781Z,94.10
2022-08-05T05:21:27.184Z,94.10
2022-08-05T05:22:26.801Z,93.80
2022-08-05T05:23:25.907Z,93.90
2022-08-05T05:24:56.442Z,94.10
2022-08-05T05:25:40.264Z,94.00
2022-08-05T05:26:28.619Z,94.20
2022-08-05T05:27:41.541Z,94.31
2022-08-05T05:28:25.796Z,94.20
2022-08-05T05:30:03.410Z,94.20
2022-08-05T05:30:31.008Z,94.31
2022-08-05T05:31:25.850Z,94.31
2022-08-05T05:32:24.771Z,94.05
2022-08-05T05:33:25.792Z,94.15
2022-08-05T05:34:26.785Z,94.35
2022-08-05T05:35:25.739Z,94.51
2022-08-05T05:36:28.797Z,94.51
2022-08-05T05:37:29.268Z,94.51
2022-08-05T05:38:27.523Z,94.31
2022-08-05T05:39:25.918Z,94.20
2022-08-05T05:40:26.142Z,94.31
2022-08-05T05:41:25.781Z,94.20
2022-08-05T05:42:25.698Z,94.00
2022-08-05T05:43:54.169Z,94.00
2022-08-05T05:44:36.455Z,94.10
2022-08-05T05:45:25.636Z,94.20
2022-08-05T05:46:25.613Z,94.31
2022-08-05T05:47:30.220Z,94.31
2022-08-05T05:48:27.783Z,94.31
2022-08-05T05:49:25.582Z,94.31
2022-08-05T05:50:25.797Z,94.20
2022-08-05T05:51:25.883Z,93.70
2022-08-05T05:52:30.035Z,93.60
2022-08-05T05:53:25.563Z,93.60
2022-08-05T05:54:50.659Z,93.80
2022-08-05T05:55:25.526Z,93.80
2022-08-05T05:56:26.218Z,93.80
2022-08-05T05:57:25.633Z,93.90
2022-08-05T05:58:31.826Z,93.80
2022-08-05T05:59:25.495Z,93.80
2022-08-05T06:00:31.617Z,94.00
2022-08-05T06:01:25.480Z,94.00
2022-08-05T06:02:32.821Z,94.10
2022-08-05T06:03:40.277Z,94.10
2022-08-05T06:04:25.621Z,94.06
2022-08-05T06:05:25.407Z,93.86
2022-08-05T06:06:28.055Z,93.46
2022-08-05T06:07:42.176Z,93.40
2022-08-05T06:08:31.839Z,93.46
2022-08-05T06:09:52.707Z,93.26
2022-08-05T06:10:25.338Z,93.10
2022-08-05T06:11:25.325Z,93.30
2022-08-05T06:12:27.183Z,93.30
2022-08-05T06:13:25.405Z,93.40
2022-08-05T06:14:25.279Z,93.60
2022-08-05T06:15:25.295Z,93.50
2022-08-05T06:16:37.133Z,93.40
2022-08-05T06:17:30.829Z,93.46
2022-08-05T06:18:31.094Z,93.35
2022-08-05T06:19:35.106Z,93.46
2022-08-05T06:20:25.248Z,93.46
2022-08-05T06:21:37.603Z,93.55
2022-08-05T06:22:25.262Z,93.55
2022-08-05T06:23:25.202Z,93.46
2022-08-05T06:24:25.919Z,93.46
2022-08-05T06:26:12.530Z,93.55
2022-08-05T06:26:25.237Z,93.70
2022-08-05T06:28:10.541Z,93.90
2022-08-05T06:28:27.145Z,93.90
2022-08-05T06:29:49.436Z,94.00
2022-08-05T06:30:25.235Z,93.66
2022-08-05T06:31:30.539Z,93.55
2022-08-05T06:32:28.830Z,93.26
2022-08-05T06:33:33.347Z,93.40
2022-08-05T06:34:27.727Z,93.50
2022-08-05T06:36:07.297Z,93.60
2022-08-05T06:36:26.033Z,93.46
2022-08-05T06:37:56.407Z,93.35
2022-08-05T06:38:36.697Z,93.05
2022-08-05T06:39:27.779Z,93.05
2022-08-05T06:40:28.053Z,93.30
2022-08-05T06:41:25.032Z,93.30
2022-08-05T06:42:25.308Z,93.35
2022-08-05T06:43:58.727Z,93.26
2022-08-05T06:44:24.987Z,93.05
2022-08-05T06:46:03.369Z,93.15
2022-08-05T06:46:30.363Z,93.05
2022-08-05T06:48:11.332Z,92.95
2022-08-05T06:48:55.703Z,92.85
2022-08-05T06:50:00.310Z,92.85
2022-08-05T06:50:24.961Z,92.75
2022-08-05T06:51:29.736Z,92.55
2022-08-05T06:52:38.181Z,92.65
2022-08-05T06:53:28.310Z,92.85
2022-08-05T06:54:25.869Z,92.95
2022-08-05T06:55:24.834Z,92.75
2022-08-05T06:56:26.646Z,92.90
2022-08-05T06:57:57.131Z,92.95
2022-08-05T06:58:34.882Z,92.85
2022-08-05T06:59:24.809Z,92.75
2022-08-05T07:00:25.530Z,92.85
2022-08-05T07:01:27.727Z,92.75
2022-08-05T07:02:24.800Z,92.75
2022-08-05T07:03:27.945Z,92.85
2022-08-05T07:04:24.767Z,92.85
2022-08-05T07:05:36.964Z,92.75
2022-08-05T07:06:24.702Z,92.65
2022-08-05T07:07:35.637Z,92.65
2022-08-05T07:08:25.156Z,92.75
2022-08-05T07:09:24.960Z,92.75
2022-08-05T07:10:30.462Z,92.85
2022-08-05T07:11:25.180Z,92.75
2022-08-05T07:12:24.660Z,92.85
2022-08-05T07:13:57.073Z,92.95
2022-08-05T07:14:29.293Z,92.85
2022-08-05T07:15:34.662Z,92.85
2022-08-05T07:18:01.766Z,92.99
2022-08-05T07:18:26.975Z,93.15
2022-08-05T07:18:34.204Z,93.30
2022-08-05T07:20:05.793Z,93.40
2022-08-05T07:20:38.728Z,93.26
2022-08-05T07:21:25.730Z,93.15
2022-08-05T07:22:28.540Z,93.26
2022-08-05T07:23:26.537Z,93.05
2022-08-05T07:24:24.782Z,92.79
2022-08-05T07:25:54.744Z,92.79
2022-08-05T07:26:25.622Z,92.59
2022-08-05T07:27:27.444Z,92.90
2022-08-05T07:28:24.672Z,93.14
2022-08-05T07:29:25.343Z,93.34
2022-08-05T07:30:32.901Z,93.95
2022-08-05T07:31:41.084Z,93.95
2022-08-05T07:32:26.261Z,93.85
2022-08-05T07:33:36.671Z,93.85
2022-08-05T07:34:28.543Z,93.54
2022-08-05T07:36:04.064Z,94.25
2022-08-05T07:36:24.659Z,94.35
2022-08-05T07:37:24.914Z,94.39
2022-08-05T07:38:32.862Z,94.45
2022-08-05T07:40:04.770Z,94.35
2022-08-05T07:40:36.559Z,94.35
2022-08-05T07:42:13.175Z,94.45
2022-08-05T07:42:33.372Z,94.40
2022-08-05T07:43:24.538Z,94.31
2022-08-05T07:44:24.536Z,93.80
2022-08-05T07:45:57.852Z,93.70
2022-08-05T07:46:26.034Z,93.10
2022-08-05T07:47:25.798Z,92.99
2022-08-05T07:49:01.942Z,92.90
2022-08-05T07:49:24.738Z,92.79
2022-08-05T07:50:28.911Z,92.99
2022-08-05T07:51:37.230Z,92.79
2022-08-05T07:52:24.529Z,92.19
2022-08-05T07:53:26.924Z,91.89
2022-08-05T07:54:26.633Z,92.09
2022-08-05T07:56:05.535Z,92.19
2022-08-05T07:57:01.662Z,92.19
2022-08-05T07:57:56.248Z,91.78
2022-08-05T07:58:54.929Z,91.49
2022-08-05T07:59:38.342Z,91.38
2022-08-05T08:00:24.335Z,91.69
2022-08-05T08:01:24.384Z,91.78
2022-08-05T08:02:26.784Z,91.38
2022-08-05T08:03:24.341Z,91.69
2022-08-05T08:04:38.095Z,91.78
2022-08-05T08:05:24.251Z,91.78
2022-08-05T08:06:28.133Z,92.49
2022-08-05T08:07:24.705Z,92.33
2022-08-05T08:08:24.235Z,92.23
2022-08-05T08:09:24.229Z,92.54
2022-08-05T08:10:24.254Z,92.63
2022-08-05T08:11:27.803Z,92.83
2022-08-05T08:12:27.346Z,92.63
2022-08-05T08:13:29.327Z,92.74
2022-08-05T08:14:24.196Z,92.94
2022-08-05T08:15:37.324Z,92.74
2022-08-05T08:16:50.831Z,92.94
2022-08-05T08:17:24.491Z,92.83
2022-08-05T08:18:24.188Z,93.24
2022-08-05T08:20:10.822Z,93.54
2022-08-05T08:21:02.179Z,92.94
2022-08-05T08:21:24.097Z,93.04
2022-08-05T08:22:24.209Z,93.24
2022-08-05T08:24:02.580Z,93.60
2022-08-05T08:24:37.112Z,93.70
2022-08-05T08:25:27.030Z,93.30
2022-08-05T08:26:27.146Z,93.30
2022-08-05T08:27:40.049Z,93.19
2022-08-05T08:28:37.367Z,92.90
2022-08-05T08:29:45.497Z,92.59
2022-08-05T08:30:30.028Z,92.75
2022-08-05T08:31:24.058Z,92.95
2022-08-05T08:32:28.090Z,92.75
2022-08-05T08:33:24.136Z,92.45
2022-08-05T08:34:29.877Z,92.14
2022-08-05T08:35:26.582Z,92.05
2022-08-05T08:36:38.939Z,91.38
2022-08-05T08:37:27.880Z,91.69
2022-08-05T08:38:35.132Z,91.93
2022-08-05T08:39:24.004Z,92.23
2022-08-05T08:40:23.922Z,92.83
2022-08-05T08:41:26.239Z,93.24
2022-08-05T08:42:33.859Z,93.34
2022-08-05T08:45:16.543Z,93.44
2022-08-05T08:45:29.786Z,93.24
2022-08-05T08:45:35.703Z,93.10
2022-08-05T08:46:36.476Z,92.90
2022-08-05T08:48:05.917Z,92.69
2022-08-05T08:48:59.706Z,92.69
2022-08-05T08:50:05.801Z,92.79
2022-08-05T08:51:03.094Z,92.69
2022-08-05T08:52:03.525Z,92.09
2022-08-05T08:52:35.592Z,91.78
2022-08-05T08:53:35.598Z,91.58
2022-08-05T08:54:36.228Z,91.78
2022-08-05T08:56:03.626Z,91.89
2022-08-05T08:56:35.575Z,91.58
2022-08-05T08:57:42.292Z,91.78
2022-08-05T08:58:44.037Z,92.09
2022-08-05T08:59:35.513Z,92.14
2022-08-05T09:00:35.560Z,91.34
2022-08-05T09:01:35.512Z,91.28
2022-08-05T09:02:35.478Z,91.44
2022-08-05T09:03:40.435Z,91.54
2022-08-05T09:04:35.448Z,91.54
2022-08-05T09:05:38.846Z,91.44
2022-08-05T09:06:36.169Z,90.94
2022-08-05T09:07:40.037Z,91.04
2022-08-05T09:08:35.410Z,91.24
2022-08-05T09:09:35.876Z,91.04
2022-08-05T09:10:35.383Z,91.24
2022-08-05T09:11:51.156Z,91.14
2022-08-05T09:12:35.691Z,91.14
2022-08-05T09:14:01.171Z,91.04
2022-08-05T09:15:05.823Z,91.04
2022-08-05T09:15:36.789Z,90.99
2022-08-05T09:16:35.361Z,90.53
2022-08-05T09:17:42.422Z,90.84
2022-08-05T09:18:36.490Z,90.53
2022-08-05T09:19:36.392Z,90.53
2022-08-05T09:20:37.338Z,90.64
2022-08-05T09:22:22.941Z,90.94
2022-08-05T09:22:36.677Z,90.64
2022-08-05T09:23:37.478Z,90.64
2022-08-05T09:24:35.745Z,90.94
2022-08-05T09:26:01.064Z,91.14
2022-08-05T09:28:21.325Z,91.14
2022-08-05T09:29:30.930Z,90.64
2022-08-05T09:32:40.352Z,90.48
2022-08-05T09:34:11.609Z,91.18
2022-08-05T09:35:12.313Z,91.58
2022-08-05T09:36:16.682Z,91.85
2022-08-05T09:37:15.100Z,92.14
2022-08-05T09:38:18.228Z,91.74
2022-08-05T09:39:18.553Z,91.54
2022-08-05T09:40:12.496Z,90.94
2022-08-05T09:42:28.238Z,90.53
2022-08-05T09:43:25.744Z,90.33
2022-08-05T09:44:25.721Z,90.53
2022-08-05T09:46:07.421Z,90.53
2022-08-05T09:46:27.637Z,90.73
2022-08-05T09:47:25.753Z,90.84
2022-08-05T09:48:26.885Z,91.04
2022-08-05T09:49:54.498Z,90.64
2022-08-05T09:50:38.736Z,90.64
2022-08-05T09:51:25.638Z,90.79
2022-08-05T09:52:26.025Z,90.69
2022-08-05T09:53:54.034Z,90.39
2022-08-05T09:54:29.331Z,89.99
2022-08-05T09:55:56.650Z,88.78
2022-08-05T09:56:25.588Z,89.53
2022-08-05T09:57:25.565Z,89.69
2022-08-05T09:58:25.632Z,89.69
2022-08-05T09:59:27.771Z,89.63
2022-08-05T10:00:25.502Z,89.73
2022-08-05T10:01:32.474Z,89.79
2022-08-05T10:02:25.898Z,89.79
2022-08-05T10:03:25.496Z,89.48
2022-08-05T10:04:29.305Z,89.39
2022-08-05T10:05:26.673Z,89.48
2022-08-05T10:06:25.464Z,90.09
2022-08-05T10:07:50.338Z,90.29
2022-08-05T10:08:42.501Z,89.48
2022-08-05T10:09:29.215Z,89.69
2022-08-05T10:10:28.104Z,89.24
2022-08-05T10:11:31.182Z,88.58
2022-08-05T10:12:31.516Z,89.08
2022-08-05T10:13:25.403Z,89.44
2022-08-05T10:14:26.775Z,89.64
2022-08-05T10:15:25.580Z,88.54
2022-08-05T10:16:25.375Z,88.43
2022-08-05T10:17:37.367Z,88.64
2022-08-05T10:18:25.371Z,88.59
2022-08-05T10:20:02.954Z,87.29
2022-08-05T10:20:25.313Z,87.49
2022-08-05T10:21:25.314Z,88.09
2022-08-05T10:22:29.811Z,87.89
2022-08-05T10:23:55.844Z,87.89
2022-08-05T10:24:27.089Z,86.85
2022-08-05T10:25:25.246Z,85.44
2022-08-05T10:26:32.541Z,85.64
2022-08-05T10:27:26.288Z,86.85
2022-08-05T10:28:30.341Z,86.65
2022-08-05T10:30:06.951Z,86.94
2022-08-05T10:32:54.068Z,87.41
2022-08-05T10:33:09.386Z,86.70
2022-08-05T10:33:19.819Z,86.26
2022-08-05T10:34:17.186Z,86.36
2022-08-05T10:35:16.883Z,86.36
2022-08-05T10:36:16.866Z,87.22
2022-08-05T10:37:16.858Z,86.92
2022-08-05T10:38:16.983Z,86.82
2022-08-05T10:39:24.224Z,86.18
2022-08-05T10:40:17.909Z,83.27
2022-08-05T10:41:23.640Z,83.11
2022-08-05T10:42:18.440Z,84.07
2022-08-05T10:43:16.862Z,83.47
2022-08-05T10:44:16.779Z,84.17
2022-08-05T10:45:23.474Z,83.47
2022-08-05T10:46:16.735Z,82.82
2022-08-05T10:47:26.280Z,82.32
2022-08-05T10:48:29.848Z,82.63
2022-08-05T10:49:17.104Z,81.23
2022-08-05T10:50:31.692Z,81.73
2022-08-05T10:51:21.861Z,79.02
2022-08-05T10:52:16.726Z,79.42
2022-08-05T10:53:17.500Z,80.22
2022-08-05T10:54:28.301Z,80.22
2022-08-05T10:55:18.512Z,81.02
2022-08-05T10:56:25.660Z,80.12
2022-08-05T10:57:16.692Z,79.58
2022-08-05T10:58:16.648Z,79.28
2022-08-05T11:00:04.430Z,79.78
2022-08-05T11:00:20.879Z,78.98
2022-08-05T11:01:16.565Z,79.18
2022-08-05T11:02:37.536Z,79.28
2022-08-05T11:03:24.501Z,80.44
2022-08-05T11:04:16.543Z,77.94
2022-08-05T11:05:18.149Z,77.84
2022-08-05T11:06:17.779Z,77.94
2022-08-05T11:07:16.778Z,77.84
2022-08-05T11:08:33.814Z,77.60
2022-08-05T11:09:17.266Z,78.60
2022-08-05T11:10:16.527Z,77.06
2022-08-05T11:11:16.926Z,76.63
2022-08-05T11:12:16.612Z,77.33
2022-08-05T11:13:16.456Z,77.09
2022-08-05T11:14:16.454Z,75.59
2022-08-05T11:15:20.107Z,74.79
2022-08-05T11:16:16.448Z,74.09
2022-08-05T11:17:58.205Z,74.76
2022-08-05T11:18:16.606Z,73.66
2022-08-05T11:20:11.466Z,72.45
2022-08-05T11:20:22.463Z,73.56
2022-08-05T11:21:16.416Z,71.09
2022-08-05T11:22:16.413Z,73.49
2022-08-05T11:23:16.406Z,73.79
2022-08-05T11:24:30.875Z,74.46
2022-08-05T11:26:03.200Z,74.32
2022-08-05T11:26:16.280Z,73.62
2022-08-05T11:27:16.383Z,73.82
2022-08-05T11:28:17.147Z,73.79
2022-08-05T11:29:16.382Z,73.88
2022-08-05T11:30:16.246Z,73.88
2022-08-05T11:31:54.518Z,73.35
2022-08-05T11:32:16.342Z,72.65
2022-08-05T11:33:21.245Z,73.65
2022-08-05T11:34:18.988Z,73.25
2022-08-05T11:35:16.243Z,72.35
2022-08-05T11:36:16.273Z,71.36
2022-08-05T11:38:26.563Z,73.35
2022-08-05T11:38:45.482Z,73.35
2022-08-05T11:39:16.281Z,72.85
2022-08-05T11:40:18.265Z,72.85
2022-08-05T11:41:54.689Z,71.06
2022-08-05T11:42:18.194Z,73.25
2022-08-05T11:43:16.119Z,73.35
2022-08-05T11:44:21.528Z,73.65
2022-08-05T11:46:14.589Z,73.22
2022-08-05T11:46:32.497Z,72.52
2022-08-05T11:47:21.534Z,73.11
2022-08-05T11:48:16.045Z,69.26
2022-08-05T11:49:16.015Z,71.39
2022-08-05T11:50:16.017Z,73.45
2022-08-05T11:51:43.696Z,74.75
2022-08-05T11:52:16.013Z,73.61
2022-08-05T11:53:15.993Z,74.02
2022-08-05T11:54:15.970Z,74.77
2022-08-05T11:55:15.961Z,73.55
2022-08-05T11:56:15.970Z,72.19
2022-08-05T11:57:24.724Z,71.19
2022-08-05T11:58:17.331Z,70.42
2022-08-05T11:59:15.912Z,69.76
2022-08-05T12:00:15.942Z,71.36
2022-08-05T12:01:19.139Z,72.89
2022-08-05T12:02:29.855Z,73.58
2022-08-05T12:03:15.956Z,74.35
2022-08-05T12:04:15.874Z,74.75
2022-08-05T12:05:18.365Z,69.76
2022-08-05T12:06:15.852Z,70.49
2022-08-05T12:07:15.911Z,71.69
2022-08-05T12:08:18.138Z,72.49
2022-08-05T12:09:20.051Z,71.79
2022-08-05T12:10:15.802Z,72.89
2022-08-05T12:11:20.204Z,72.78
2022-08-05T12:12:15.788Z,73.49
2022-08-05T12:13:18.897Z,73.79
2022-08-05T12:14:15.763Z,73.99
2022-08-05T12:15:16.800Z,73.62
2022-08-05T12:16:15.875Z,73.12
2022-08-05T12:18:02.580Z,74.22
2022-08-05T12:18:16.054Z,75.62
2022-08-05T12:20:27.017Z,73.22
2022-08-05T12:20:38.097Z,74.02
2022-08-05T12:21:15.686Z,74.42
2022-08-05T12:22:20.015Z,75.02
2022-08-05T12:23:15.717Z,74.88
2022-08-05T12:24:17.164Z,74.08
2022-08-05T12:25:15.620Z,73.58
2022-08-05T12:26:15.662Z,72.59
2022-08-05T12:27:32.901Z,71.79
2022-08-05T12:28:15.835Z,73.45
2022-08-05T12:29:16.300Z,74.45
2022-08-05T12:30:15.750Z,73.75
2022-08-05T12:31:23.777Z,69.26
2022-08-05T12:32:15.584Z,70.86
2022-08-05T12:33:27.028Z,71.75
2022-08-05T12:34:21.262Z,71.52
2022-08-05T12:35:16.841Z,72.32
2022-08-05T12:36:15.531Z,70.23
2022-08-05T12:37:17.584Z,71.32
2022-08-05T12:38:15.506Z,70.62
2022-08-05T12:39:15.543Z,71.48
2022-08-05T12:40:20.671Z,70.56
2022-08-05T12:41:16.140Z,69.13
2022-08-05T12:42:15.451Z,69.62
2022-08-05T12:43:20.556Z,69.13
2022-08-05T12:44:28.501Z,70.42
2022-08-05T12:45:15.513Z,70.19
2022-08-05T12:46:15.381Z,70.89
2022-08-05T12:47:17.102Z,69.02
2022-08-05T12:48:27.773Z,69.89
2022-08-05T12:49:15.391Z,68.40
2022-08-05T12:50:15.357Z,68.00
2022-08-05T12:52:10.972Z,69.32
2022-08-05T12:52:28.359Z,70.32
2022-08-05T12:53:15.330Z,70.32
2022-08-05T12:54:16.743Z,69.43
2022-08-05T12:55:15.302Z,68.83
2022-08-05T12:56:34.104Z,68.53
2022-08-05T12:57:15.314Z,67.86
2022-08-05T12:58:50.061Z,70.36
2022-08-05T12:59:21.124Z,70.36
2022-08-05T13:02:01.454Z,70.59
2022-08-05T13:02:10.951Z,71.59